Time;durP1;ratioP1;P1;durP2;ratioP2;P2;SDS_P1;SDS_P2;PMS_P1;PMS_P2;Temp;Humidity;BMP_temperature;BMP_pressure;BME280_temperature;BME280_humidity;BME280_pressure;Samples;Min_cycle;Max_cycle;Signal;HPM_P1;HPM_P2
2022/01/08 00:01:09;;;;;;;93.82;47.47;;;5.50;74.20;;;;;;5056764;28;20052;-59
2022/01/08 00:03:36;;;;;;;92.68;47.63;;;5.50;74.90;;;;;;5056504;28;20544;-52
2022/01/08 00:06:02;;;;;;;134.60;64.38;;;5.50;74.00;;;;;;5056613;28;20470;-57
2022/01/08 00:08:28;;;;;;;117.03;58.28;;;5.50;73.30;;;;;;5056537;28;20100;-49
2022/01/08 00:10:54;;;;;;;125.13;61.10;;;5.30;74.80;;;;;;5056512;28;20021;-54
2022/01/08 00:13:20;;;;;;;96.20;50.83;;;5.20;75.60;;;;;;5056397;28;20033;-55
2022/01/08 00:15:46;;;;;;;114.63;53.97;;;5.20;76.40;;;;;;5056466;28;20474;-48
2022/01/08 00:18:12;;;;;;;114.18;58.20;;;5.30;75.50;;;;;;5056331;28;20112;-56
2022/01/08 00:20:37;;;;;;;105.05;53.97;;;5.30;75.50;;;;;;5056052;28;20103;-57
2022/01/08 00:23:03;;;;;;;115.78;57.65;;;5.40;74.50;;;;;;5056306;28;20021;-50
2022/01/08 00:25:29;;;;;;;99.00;49.25;;;5.40;74.20;;;;;;5056283;28;20021;-48
2022/01/08 00:27:55;;;;;;;87.20;46.97;;;5.40;75.10;;;;;;5056070;28;20029;-54
2022/01/08 00:30:21;;;;;;;100.35;51.90;;;5.40;74.50;;;;;;5056303;28;20098;-56
2022/01/08 00:32:47;;;;;;;108.78;54.08;;;5.40;75.10;;;;;;5056150;28;20092;-55
2022/01/08 00:35:13;;;;;;;88.60;46.30;;;5.30;75.00;;;;;;5055825;28;20483;-62
2022/01/08 00:37:40;;;;;;;78.30;41.90;;;5.40;74.70;;;;;;5056051;28;20021;-55
2022/01/08 00:40:08;;;;;;;81.90;43.65;;;5.40;74.50;;;;;;5056090;28;20467;-46
2022/01/08 00:42:35;;;;;;;70.63;38.50;;;5.50;74.50;;;;;;5055772;28;20479;-56
2022/01/08 00:45:01;;;;;;;68.75;36.88;;;5.50;74.80;;;;;;5056151;28;20032;-47
2022/01/08 00:47:26;;;;;;;66.65;35.38;;;5.50;75.10;;;;;;5055820;28;20386;-59
2022/01/08 00:49:52;;;;;;;76.65;40.80;;;5.40;76.60;;;;;;5055545;28;20367;-56
2022/01/08 00:52:18;;;;;;;69.65;36.15;;;5.40;76.30;;;;;;5055722;28;20032;-54
2022/01/08 00:54:44;;;;;;;52.88;31.15;;;5.40;75.60;;;;;;5055697;28;20036;-50
2022/01/08 00:57:09;;;;;;;84.30;44.00;;;5.30;75.80;;;;;;5055668;28;20061;-54
2022/01/08 00:59:35;;;;;;;71.03;40.17;;;5.30;75.10;;;;;;5055455;28;20025;-55
2022/01/08 01:02:01;;;;;;;63.58;35.78;;;5.10;77.50;;;;;;5055435;28;20090;-55
2022/01/08 01:04:27;;;;;;;65.25;35.90;;;5.10;78.40;;;;;;5055556;28;20021;-53
2022/01/08 01:06:53;;;;;;;63.15;33.85;;;5.20;79.00;;;;;;5055310;28;20033;-48
2022/01/08 01:09:18;;;;;;;74.30;40.47;;;5.30;78.50;;;;;;5055369;28;20219;-59
2022/01/08 01:11:44;;;;;;;87.95;45.75;;;5.30;76.90;;;;;;5055297;28;20096;-55
2022/01/08 01:14:10;;;;;;;75.35;40.90;;;5.10;78.30;;;;;;5055275;28;20029;-54
2022/01/08 01:16:36;;;;;;;69.43;39.53;;;4.90;80.20;;;;;;5055072;28;20037;-55
2022/01/08 01:19:03;;;;;;;67.20;35.45;;;5.00;80.00;;;;;;5055289;28;20029;-60
2022/01/08 01:21:29;;;;;;;66.53;35.92;;;5.00;79.80;;;;;;5055160;28;20021;-54
2022/01/08 01:23:56;;;;;;;74.60;40.67;;;5.10;79.50;;;;;;5055174;28;20074;-49
2022/01/08 01:26:25;;;;;;;69.15;36.60;;;5.20;79.50;;;;;;5055132;28;20021;-54
2022/01/08 01:29:13;;;;;;;65.47;36.03;;;5.20;80.80;;;;;;5055288;28;20029;-56
2022/01/08 01:47:59;;;;;;;;;;;4.90;88.80;;;;;;5054987;28;20036;-51
2022/01/08 01:50:24;;;;;;;65.15;35.35;;;5.00;89.20;;;;;;5054620;28;19908;-47
2022/01/08 01:52:50;;;;;;;56.78;29.73;;;4.90;91.10;;;;;;5054615;28;20078;-49
2022/01/08 01:55:16;;;;;;;63.13;32.85;;;4.80;91.50;;;;;;5054594;28;20032;-52
2022/01/08 01:57:42;;;;;;;63.67;34.17;;;4.80;91.40;;;;;;5054749;28;20040;-58
2022/01/08 02:00:08;;;;;;;52.75;28.50;;;4.80;91.20;;;;;;5054472;28;20104;-57
2022/01/08 02:02:34;;;;;;;55.47;29.75;;;4.80;91.40;;;;;;5054076;28;20395;-54
2022/01/08 02:05:00;;;;;;;46.20;26.73;;;4.90;91.50;;;;;;5054624;28;20017;-44
2022/01/08 02:07:28;;;;;;;46.03;26.73;;;4.90;90.10;;;;;;5054148;28;20131;-60
2022/01/08 02:09:55;;;;;;;43.95;25.92;;;5.00;90.50;;;;;;5054163;28;20083;-48
2022/01/08 02:12:22;;;;;;;42.22;24.88;;;5.00;90.00;;;;;;5054494;28;20024;-49
2022/01/08 02:14:48;;;;;;;40.88;25.23;;;5.00;88.80;;;;;;5054185;28;20025;-57
2022/01/08 02:17:14;;;;;;;39.20;22.77;;;5.00;88.50;;;;;;5053741;28;20048;-47
2022/01/08 02:19:41;;;;;;;45.63;25.10;;;5.00;89.30;;;;;;5054408;28;20032;-53
2022/01/08 02:22:10;;;;;;;49.55;27.60;;;5.10;89.60;;;;;;5053303;28;20485;-52
2022/01/08 02:24:36;;;;;;;51.95;27.98;;;4.90;89.40;;;;;;5054211;28;20175;-55
2022/01/08 02:27:02;;;;;;;65.28;35.33;;;5.00;89.30;;;;;;5053899;28;20029;-46
2022/01/08 02:29:28;;;;;;;56.65;30.95;;;4.90;90.10;;;;;;5053983;28;20029;-56
2022/01/08 02:32:10;;;;;;;50.60;28.33;;;4.70;90.90;;;;;;5053964;28;20017;-59
2022/01/08 02:34:40;;;;;;;56.60;28.98;;;4.70;92.40;;;;;;5054061;28;20108;-54
2022/01/08 02:37:07;;;;;;;58.83;31.92;;;4.70;92.50;;;;;;5053731;28;20033;-55
2022/01/08 02:39:38;;;;;;;45.50;26.35;;;4.70;92.20;;;;;;5053664;28;20475;-59
2022/01/08 02:42:06;;;;;;;55.25;29.30;;;4.70;92.60;;;;;;5053936;28;20104;-52
2022/01/08 02:44:33;;;;;;;47.42;25.83;;;4.70;93.50;;;;;;5053543;28;20104;-56
2022/01/08 02:46:59;;;;;;;51.45;29.50;;;4.60;94.30;;;;;;5053709;28;20056;-51
2022/01/08 02:49:25;;;;;;;69.47;36.08;;;4.50;94.70;;;;;;5053513;28;20044;-56
2022/01/08 02:51:52;;;;;;;47.85;27.40;;;4.30;95.80;;;;;;5053650;28;20418;-57
2022/01/08 02:54:17;;;;;;;49.83;27.92;;;4.40;96.50;;;;;;5053300;28;20017;-49
2022/01/08 02:56:48;;;;;;;53.95;29.00;;;4.60;95.20;;;;;;5053708;28;20039;-49
2022/01/08 02:59:15;;;;;;;43.80;25.33;;;4.60;94.90;;;;;;5053513;28;20043;-53
2022/01/08 03:01:41;;;;;;;45.40;24.73;;;4.60;94.80;;;;;;5053284;28;20028;-52
2022/01/08 03:04:08;;;;;;;42.88;24.50;;;4.70;93.90;;;;;;5053660;28;20079;-52
2022/01/08 03:06:34;;;;;;;46.30;24.60;;;4.80;93.80;;;;;;5053305;28;20024;-47
2022/01/08 03:09:00;;;;;;;50.22;29.30;;;4.80;92.90;;;;;;5053203;28;20021;-54
2022/01/08 03:11:26;;;;;;;48.35;26.40;;;4.60;94.20;;;;;;5053537;28;20121;-57
2022/01/08 03:13:52;;;;;;;44.20;24.17;;;4.50;95.20;;;;;;5053362;28;20437;-49
2022/01/08 03:16:18;;;;;;;45.38;25.00;;;4.60;94.40;;;;;;5052862;28;20049;-51
2022/01/08 03:18:44;;;;;;;42.90;23.70;;;4.70;93.80;;;;;;5053320;28;20127;-54
2022/01/08 03:21:17;;;;;;;42.50;24.30;;;4.80;93.10;;;;;;5053200;28;20048;-56
2022/01/08 03:23:49;;;;;;;43.17;23.77;;;4.80;92.60;;;;;;5053079;28;20029;-48
2022/01/08 03:26:19;;;;;;;47.72;25.98;;;4.80;92.30;;;;;;5053115;28;20483;-59
2022/01/08 03:28:46;;;;;;;46.03;26.33;;;4.80;92.10;;;;;;5052975;28;20475;-54
2022/01/08 03:31:13;;;;;;;42.45;23.50;;;4.80;92.20;;;;;;5053270;28;20100;-44
2022/01/08 03:33:39;;;;;;;41.45;23.65;;;4.80;92.70;;;;;;5055927;28;20056;-54
2022/01/08 03:36:05;;;;;;;47.47;25.52;;;4.80;91.80;;;;;;5057270;28;20045;-50
2022/01/08 03:38:32;;;;;;;46.53;24.30;;;4.90;91.40;;;;;;5057092;28;20494;-58
2022/01/08 03:40:58;;;;;;;42.67;24.55;;;4.90;91.10;;;;;;5057211;28;20021;-54
2022/01/08 03:43:23;;;;;;;40.20;24.05;;;4.90;91.20;;;;;;5057177;28;20378;-54
2022/01/08 03:45:50;;;;;;;38.50;22.98;;;4.90;91.50;;;;;;5057100;28;20070;-51
2022/01/08 03:50:45;;;;;;;40.63;23.95;;;4.80;91.60;;;;;;5057269;28;20035;-48
2022/01/08 03:53:11;;;;;;;40.63;23.40;;;4.60;92.90;;;;;;5056754;28;20025;-53
2022/01/08 03:55:38;;;;;;;37.80;21.77;;;4.70;92.90;;;;;;5057099;28;20044;-52
2022/01/08 03:58:04;;;;;;;36.92;21.77;;;4.70;92.60;;;;;;5056633;28;20160;-57
2022/01/08 04:00:30;;;;;;;40.67;21.13;;;4.70;91.90;;;;;;5056559;28;20051;-57
2022/01/08 04:02:56;;;;;;;39.05;22.50;;;4.80;91.80;;;;;;5056795;28;20021;-53
2022/01/08 04:05:22;;;;;;;39.15;22.48;;;4.70;91.90;;;;;;5056635;28;20029;-53
2022/01/08 04:07:47;;;;;;;37.92;22.50;;;4.70;92.00;;;;;;5056514;28;20029;-44
2022/01/08 04:10:13;;;;;;;47.15;27.83;;;4.70;91.70;;;;;;5056556;28;20025;-54
2022/01/08 04:12:46;;;;;;;51.25;27.77;;;4.70;92.10;;;;;;5056337;28;20017;-57
2022/01/08 04:17:54;;;;;;;45.85;26.05;;;4.50;94.00;;;;;;5056410;28;20021;-55
2022/01/08 04:20:22;;;;;;;38.58;22.83;;;4.50;94.80;;;;;;5056353;28;20083;-64
2022/01/08 04:22:50;;;;;;;69.72;35.05;;;4.50;94.10;;;;;;5056185;28;20063;-48
2022/01/08 04:25:18;;;;;;;44.33;26.80;;;4.40;94.20;;;;;;5056406;28;20060;-49
2022/01/08 04:27:43;;;;;;;39.03;22.85;;;4.30;95.40;;;;;;5056130;28;20116;-54
2022/01/08 04:30:09;;;;;;;41.25;22.15;;;4.30;95.20;;;;;;5056166;28;20053;-48
2022/01/08 04:32:35;;;;;;;41.78;22.48;;;4.50;95.30;;;;;;5056181;28;20029;-48
2022/01/08 04:35:02;;;;;;;42.50;24.70;;;4.50;94.30;;;;;;5056147;28;20017;-60
2022/01/08 04:37:28;;;;;;;37.35;21.35;;;4.50;93.60;;;;;;5055945;28;20029;-56
2022/01/08 04:39:54;;;;;;;39.75;23.63;;;4.60;94.50;;;;;;5055780;28;20033;-60
2022/01/08 04:42:19;;;;;;;38.88;20.50;;;4.50;94.00;;;;;;5056250;28;20029;-59
2022/01/08 04:44:45;;;;;;;41.13;22.25;;;4.40;95.80;;;;;;5055292;28;20021;-60
2022/01/08 04:47:11;;;;;;;34.00;21.13;;;4.20;96.80;;;;;;5055905;28;20060;-46
2022/01/08 04:49:37;;;;;;;33.83;19.92;;;4.10;98.90;;;;;;5055841;28;20033;-53
2022/01/08 04:52:03;;;;;;;43.67;24.83;;;4.10;98.50;;;;;;5055913;28;20025;-52
2022/01/08 04:54:28;;;;;;;36.03;22.52;;;4.00;98.90;;;;;;5055629;28;20023;-59
2022/01/08 04:56:54;;;;;;;41.63;22.73;;;3.90;99.90;;;;;;5055734;28;20096;-50
2022/01/08 04:59:20;;;;;;;30.75;18.20;;;3.90;99.90;;;;;;5055471;28;20027;-48
2022/01/08 05:01:46;;;;;;;35.88;20.63;;;4.00;99.80;;;;;;5055586;28;20087;-57
2022/01/08 05:04:12;;;;;;;38.88;21.48;;;4.00;99.40;;;;;;5055563;28;20025;-52
2022/01/08 05:06:38;;;;;;;32.75;19.52;;;4.10;99.50;;;;;;5055435;28;20017;-54
2022/01/08 05:09:04;;;;;;;42.60;27.75;;;4.10;99.90;;;;;;5055193;28;20051;-59
2022/01/08 05:11:30;;;;;;;37.97;24.50;;;4.10;98.50;;;;;;5055486;28;20024;-48
2022/01/08 05:13:57;;;;;;;46.08;27.88;;;4.00;99.30;;;;;;5055408;28;20021;-51
2022/01/08 05:16:25;;;;;;;46.42;29.60;;;4.10;99.90;;;;;;5055152;28;20041;-48
2022/01/08 05:18:53;;;;;;;40.45;25.00;;;4.00;99.80;;;;;;5055342;28;20545;-51
2022/01/08 05:21:24;;;;;;;48.40;29.65;;;4.10;99.20;;;;;;5055565;28;20067;-51
2022/01/08 05:23:52;;;;;;;84.40;41.08;;;4.20;97.70;;;;;;5055222;28;20418;-54
2022/01/08 05:26:18;;;;;;;49.70;29.30;;;4.20;97.50;;;;;;5055145;28;20021;-53
2022/01/08 05:28:44;;;;;;;56.08;30.65;;;4.10;98.40;;;;;;5055348;28;20036;-56
2022/01/08 05:31:11;;;;;;;72.18;34.50;;;4.10;98.10;;;;;;5054979;28;20467;-51
2022/01/08 05:33:37;;;;;;;54.80;30.58;;;4.20;97.10;;;;;;5055104;28;20100;-49
2022/01/08 05:36:03;;;;;;;53.50;29.77;;;4.20;97.00;;;;;;5054906;28;20120;-49
2022/01/08 05:38:29;;;;;;;52.55;28.35;;;4.30;96.90;;;;;;5054649;28;20494;-55
2022/01/08 05:40:55;;;;;;;56.90;29.83;;;4.20;97.00;;;;;;5054848;28;20025;-53
2022/01/08 05:43:21;;;;;;;89.65;41.22;;;4.20;97.20;;;;;;5054838;28;20021;-44
2022/01/08 05:45:46;;;;;;;62.92;31.60;;;4.00;98.60;;;;;;5054674;28;20025;-54
2022/01/08 05:48:13;;;;;;;66.82;32.70;;;3.80;99.90;;;;;;5054658;28;20025;-48
2022/01/08 05:50:39;;;;;;;56.17;28.08;;;3.80;99.90;;;;;;5054682;28;20029;-49
2022/01/08 05:53:05;;;;;;;56.45;30.50;;;3.80;99.90;;;;;;5054365;28;20017;-51
2022/01/08 05:55:31;;;;;;;54.85;30.80;;;3.80;99.70;;;;;;5054288;28;20032;-56
2022/01/08 05:57:56;;;;;;;58.72;30.42;;;3.80;99.60;;;;;;5054262;28;20028;-59
2022/01/08 06:00:22;;;;;;;63.00;31.70;;;3.90;99.60;;;;;;5054995;28;20021;-51
2022/01/08 06:02:48;;;;;;;71.53;37.03;;;4.00;99.10;;;;;;5054403;28;20037;-50
2022/01/08 06:05:14;;;;;;;56.88;31.17;;;4.00;98.40;;;;;;5054608;28;20024;-57
2022/01/08 06:07:39;;;;;;;59.30;31.23;;;3.80;99.90;;;;;;5054106;28;20091;-48
2022/01/08 06:10:05;;;;;;;61.22;32.65;;;4.00;99.70;;;;;;5054188;28;20033;-62
2022/01/08 06:12:31;;;;;;;46.90;26.45;;;3.90;99.90;;;;;;5054506;28;20022;-51
2022/01/08 06:14:57;;;;;;;42.35;25.40;;;3.80;99.90;;;;;;5054217;28;20108;-53
2022/01/08 06:17:23;;;;;;;35.83;21.15;;;3.90;99.80;;;;;;5053897;28;20045;-51
2022/01/08 06:19:49;;;;;;;37.00;21.05;;;3.90;99.30;;;;;;5053134;28;20438;-58
2022/01/08 06:22:15;;;;;;;39.92;22.40;;;4.00;98.70;;;;;;5053886;28;20082;-57
2022/01/08 06:24:41;;;;;;;47.92;27.80;;;4.10;99.00;;;;;;5053908;28;20029;-54
2022/01/08 06:27:07;;;;;;;45.80;26.60;;;4.10;98.70;;;;;;5053818;28;20029;-51
2022/01/08 06:29:32;;;;;;;54.00;29.05;;;4.00;99.30;;;;;;5053913;28;20028;-44
2022/01/08 06:31:58;;;;;;;93.93;47.78;;;3.90;99.30;;;;;;5054090;28;20017;-57
2022/01/08 06:34:24;;;;;;;146.43;61.15;;;3.70;99.90;;;;;;5054107;28;20395;-61
2022/01/08 06:36:50;;;;;;;102.15;47.15;;;3.50;99.90;;;;;;5053762;28;20485;-54
2022/01/08 06:39:17;;;;;;;88.60;42.28;;;3.50;99.90;;;;;;5053745;28;20021;-51
2022/01/08 06:41:43;;;;;;;69.43;36.25;;;3.60;99.90;;;;;;5053946;28;20186;-54
2022/01/08 06:44:09;;;;;;;65.75;35.67;;;3.70;99.90;;;;;;5053975;28;20029;-56
2022/01/08 06:46:35;;;;;;;57.30;32.63;;;3.90;99.80;;;;;;5053788;28;20033;-49
2022/01/08 06:49:01;;;;;;;52.72;30.42;;;3.90;99.30;;;;;;5053501;28;20115;-54
2022/01/08 06:51:26;;;;;;;45.92;27.17;;;3.90;98.90;;;;;;5053457;28;20031;-46
2022/01/08 06:53:52;;;;;;;40.80;24.80;;;3.90;98.90;;;;;;5053557;28;20466;-57
2022/01/08 06:56:19;;;;;;;40.83;23.55;;;4.00;98.50;;;;;;5053319;28;20074;-47
2022/01/08 06:58:45;;;;;;;46.10;26.35;;;4.10;97.40;;;;;;5053574;28;20025;-56
2022/01/08 07:01:11;;;;;;;47.22;26.40;;;4.00;98.10;;;;;;5053712;28;20425;-52
2022/01/08 07:03:37;;;;;;;37.13;22.88;;;3.90;98.90;;;;;;5053334;28;20029;-59
2022/01/08 07:06:03;;;;;;;37.45;21.98;;;3.90;98.80;;;;;;5053351;28;20024;-52
2022/01/08 07:08:28;;;;;;;46.88;27.38;;;3.90;98.60;;;;;;5052981;28;20060;-56
2022/01/08 07:10:54;;;;;;;43.97;26.00;;;4.00;97.90;;;;;;5053204;28;20032;-54
2022/01/08 07:13:20;;;;;;;55.92;30.40;;;4.00;98.50;;;;;;5053239;28;20029;-53
2022/01/08 07:15:46;;;;;;;41.05;24.70;;;3.90;98.90;;;;;;5053169;28;20052;-60
2022/01/08 07:18:13;;;;;;;44.30;25.42;;;4.00;98.20;;;;;;5053502;28;20575;-51
2022/01/08 07:20:38;;;;;;;37.45;23.73;;;4.10;98.00;;;;;;5052944;28;20091;-50
2022/01/08 07:23:04;;;;;;;37.40;23.65;;;4.20;97.00;;;;;;5053431;28;20475;-56
2022/01/08 07:25:30;;;;;;;37.40;22.05;;;4.20;96.20;;;;;;5053143;28;20429;-52
2022/01/08 07:27:56;;;;;;;38.05;23.48;;;4.30;96.00;;;;;;5053223;28;20079;-53
2022/01/08 07:30:22;;;;;;;35.28;21.13;;;4.30;95.50;;;;;;5053046;28;20025;-46
2022/01/08 07:32:50;;;;;;;44.38;26.50;;;4.20;95.70;;;;;;5053084;28;20021;-56
2022/01/08 07:35:19;;;;;;;41.15;23.75;;;4.30;95.00;;;;;;5052682;28;20078;-57
2022/01/08 07:37:45;;;;;;;35.70;21.30;;;4.20;95.60;;;;;;5052981;28;20036;-53
2022/01/08 07:40:13;;;;;;;36.25;21.00;;;4.20;95.20;;;;;;5053334;28;20372;-53
2022/01/08 07:42:39;;;;;;;42.10;23.92;;;4.20;95.50;;;;;;5052905;28;20056;-60
2022/01/08 07:45:05;;;;;;;32.22;20.40;;;4.20;95.00;;;;;;5052938;28;20018;-54
2022/01/08 07:47:31;;;;;;;43.28;25.25;;;4.20;95.20;;;;;;5052858;28;20441;-53
2022/01/08 07:49:57;;;;;;;40.70;24.23;;;4.20;95.40;;;;;;5052656;28;20100;-57
2022/01/08 07:52:23;;;;;;;36.83;23.30;;;4.30;94.90;;;;;;5053017;28;20032;-52
2022/01/08 07:54:48;;;;;;;41.35;24.60;;;4.30;94.50;;;;;;5052820;28;20386;-58
2022/01/08 07:57:14;;;;;;;54.55;29.70;;;4.40;94.60;;;;;;5052999;28;20419;-49
2022/01/08 07:59:42;;;;;;;43.83;25.90;;;4.40;95.40;;;;;;5052896;28;20104;-47
2022/01/08 08:02:11;;;;;;;37.05;25.33;;;4.20;95.90;;;;;;5052876;28;20032;-51
2022/01/08 08:04:37;;;;;;;38.85;22.95;;;4.20;96.80;;;;;;5052446;28;20032;-55
2022/01/08 08:07:03;;;;;;;38.55;23.52;;;4.30;95.90;;;;;;5052798;28;20040;-53
2022/01/08 08:09:29;;;;;;;45.63;26.20;;;4.30;96.40;;;;;;5052995;28;20368;-51
2022/01/08 08:11:54;;;;;;;35.50;23.90;;;4.30;96.30;;;;;;5052581;28;20055;-56
2022/01/08 08:14:20;;;;;;;39.72;24.00;;;4.20;97.30;;;;;;5052936;28;20029;-48
2022/01/08 08:16:46;;;;;;;41.05;24.75;;;4.20;96.70;;;;;;5052440;28;20495;-54
2022/01/08 08:19:12;;;;;;;57.80;32.17;;;4.30;96.70;;;;;;5052815;28;20032;-55
2022/01/08 08:21:37;;;;;;;65.65;36.47;;;4.40;95.60;;;;;;5056212;28;20108;-59
2022/01/08 08:24:05;;;;;;;63.60;34.10;;;4.30;96.40;;;;;;5056432;28;20021;-50
2022/01/08 08:26:32;;;;;;;63.65;33.67;;;4.30;97.10;;;;;;5056134;28;20499;-47
2022/01/08 08:28:58;;;;;;;55.80;30.05;;;4.40;96.50;;;;;;5056388;28;20036;-56
2022/01/08 08:31:24;;;;;;;50.58;28.30;;;4.50;95.30;;;;;;5056100;28;20379;-58
2022/01/08 08:33:49;;;;;;;49.92;27.95;;;4.50;95.60;;;;;;5056251;28;20021;-59
2022/01/08 08:36:15;;;;;;;41.72;26.30;;;4.50;96.10;;;;;;5056297;28;20075;-46
2022/01/08 08:38:41;;;;;;;50.22;31.15;;;4.60;94.90;;;;;;5056357;28;20032;-55
2022/01/08 08:41:07;;;;;;;50.50;31.10;;;4.70;94.90;;;;;;5055941;28;20418;-46
2022/01/08 08:43:32;;;;;;;48.78;29.92;;;4.50;96.50;;;;;;5055876;28;20017;-52
2022/01/08 08:45:58;;;;;;;47.03;29.17;;;4.60;96.10;;;;;;5056055;28;20029;-49
2022/01/08 08:48:24;;;;;;;45.25;27.55;;;4.70;95.90;;;;;;5055576;28;20495;-53
2022/01/08 08:50:49;;;;;;;48.85;31.65;;;4.70;96.80;;;;;;5055919;28;20021;-51
2022/01/08 08:53:15;;;;;;;53.33;34.30;;;4.70;96.60;;;;;;5055657;28;20025;-55
2022/01/08 08:55:41;;;;;;;57.97;37.47;;;4.60;97.40;;;;;;5055764;28;20017;-53
2022/01/08 08:58:06;;;;;;;72.00;43.78;;;4.60;97.00;;;;;;5055671;28;20021;-47
2022/01/08 09:00:32;;;;;;;50.03;33.05;;;4.60;97.70;;;;;;5055536;28;20075;-60
2022/01/08 09:02:58;;;;;;;49.95;30.55;;;4.50;99.80;;;;;;5055407;28;20033;-61
2022/01/08 09:05:24;;;;;;;40.85;26.65;;;4.50;99.90;;;;;;5055842;28;20021;-50
2022/01/08 09:07:50;;;;;;;48.67;31.10;;;4.50;99.90;;;;;;5055845;28;20594;-60
2022/01/08 09:10:15;;;;;;;41.63;27.02;;;4.30;99.90;;;;;;5055753;28;20059;-61
2022/01/08 09:12:42;;;;;;;38.88;24.23;;;4.30;99.90;;;;;;5055544;28;20025;-57
2022/01/08 09:15:09;;;;;;;45.17;28.50;;;4.50;99.90;;;;;;5055107;28;20090;-53
2022/01/08 09:17:38;;;;;;;56.60;31.70;;;4.60;99.90;;;;;;5055119;28;20032;-54
2022/01/08 09:20:05;;;;;;;61.78;35.40;;;4.60;99.90;;;;;;5055228;28;20080;-57
2022/01/08 09:22:31;;;;;;;53.50;31.38;;;4.50;99.90;;;;;;5055353;28;20494;-62
2022/01/08 09:24:56;;;;;;;62.17;34.25;;;4.40;99.90;;;;;;5055153;28;20025;-55
2022/01/08 09:27:23;;;;;;;59.28;35.13;;;4.50;99.90;;;;;;5055011;28;20048;-49
2022/01/08 09:29:49;;;;;;;68.88;38.90;;;4.70;99.90;;;;;;5055031;28;20092;-61
2022/01/08 09:32:17;;;;;;;65.65;37.90;;;4.90;99.50;;;;;;5054602;28;20506;-59
2022/01/08 09:34:44;;;;;;;57.08;33.47;;;4.90;98.40;;;;;;5055070;28;20111;-58
2022/01/08 09:37:11;;;;;;;69.18;36.13;;;4.70;99.90;;;;;;5055170;28;20037;-48
2022/01/08 09:39:39;;;;;;;133.07;52.83;;;4.70;99.90;;;;;;5054938;28;20119;-52
2022/01/08 09:42:07;;;;;;;77.50;41.70;;;4.80;99.90;;;;;;5054831;28;20028;-43
2022/01/08 09:44:34;;;;;;;70.30;38.25;;;4.80;99.90;;;;;;5054570;28;20082;-57
2022/01/08 09:47:01;;;;;;;77.97;44.97;;;4.80;99.90;;;;;;5055023;28;20033;-51
2022/01/08 09:49:26;;;;;;;77.32;43.35;;;4.90;99.90;;;;;;5055044;28;20104;-50
2022/01/08 09:51:52;;;;;;;71.22;39.25;;;5.00;99.90;;;;;;5054944;28;20162;-57
2022/01/08 09:54:18;;;;;;;68.35;40.60;;;5.10;99.80;;;;;;5054460;28;20060;-53
2022/01/08 09:56:43;;;;;;;53.45;32.50;;;5.00;99.90;;;;;;5054629;28;20074;-48
2022/01/08 09:59:09;;;;;;;62.20;36.28;;;4.90;99.90;;;;;;5054335;28;20031;-50
2022/01/08 10:01:36;;;;;;;62.00;38.80;;;5.00;99.90;;;;;;5054349;28;20047;-57
2022/01/08 10:04:04;;;;;;;61.30;37.15;;;5.10;99.90;;;;;;5054439;28;20035;-53
2022/01/08 10:06:32;;;;;;;52.58;31.65;;;5.00;99.90;;;;;;5054296;28;20036;-51
2022/01/08 10:08:59;;;;;;;55.40;31.60;;;5.00;99.90;;;;;;5054526;28;20025;-56
2022/01/08 10:11:26;;;;;;;67.32;39.03;;;5.10;99.90;;;;;;5054326;28;20021;-57
2022/01/08 10:14:14;;;;;;;58.72;34.90;;;5.40;98.10;;;;;;5054355;28;20048;-58
2022/01/08 10:19:28;;;;;;;46.55;28.08;;;5.60;97.80;;;;;;5054076;28;20052;-53
2022/01/08 10:21:55;;;;;;;40.03;25.10;;;5.70;96.20;;;;;;5054142;28;20067;-54
2022/01/08 10:24:27;;;;;;;42.03;27.10;;;5.80;95.50;;;;;;5054012;28;20024;-49
2022/01/08 10:27:04;;;;;;;40.47;25.55;;;6.00;93.80;;;;;;5053815;28;20033;-58
2022/01/08 10:29:30;;;;;;;48.53;29.17;;;5.90;94.80;;;;;;5053730;28;20497;-53
2022/01/08 10:31:55;;;;;;;57.78;32.70;;;5.80;96.70;;;;;;5053882;28;20075;-60
2022/01/08 10:34:24;;;;;;;41.63;25.40;;;5.70;95.70;;;;;;5053875;28;20033;-53
2022/01/08 10:37:00;;;;;;;42.35;25.55;;;5.50;95.20;;;;;;5054148;28;20025;-45
2022/01/08 10:39:31;;;;;;;59.17;37.03;;;5.50;97.60;;;;;;5053971;28;20064;-50
2022/01/08 10:42:07;;;;;;;53.92;34.63;;;5.40;99.00;;;;;;5053465;28;20029;-53
2022/01/08 10:44:33;;;;;;;42.65;26.20;;;5.50;97.00;;;;;;5053401;28;20033;-56
2022/01/08 10:47:07;;;;;;;48.08;29.65;;;5.60;96.70;;;;;;5053853;28;20055;-48
2022/01/08 10:49:42;;;;;;;37.88;23.50;;;5.80;96.30;;;;;;5053955;28;20033;-55
2022/01/08 10:52:16;;;;;;;40.65;25.50;;;5.90;96.60;;;;;;5053778;28;20383;-51
2022/01/08 10:54:44;;;;;;;56.20;31.15;;;6.00;95.20;;;;;;5053574;28;20025;-57
2022/01/08 10:57:14;;;;;;;52.75;31.45;;;6.10;92.80;;;;;;5053212;28;20036;-45
2022/01/08 10:59:42;;;;;;;43.25;28.10;;;5.90;94.60;;;;;;5053700;28;20029;-53
2022/01/08 11:02:15;;;;;;;55.13;34.03;;;6.00;94.10;;;;;;5053376;28;20032;-51
2022/01/08 11:04:47;;;;;;;50.47;31.08;;;5.90;93.60;;;;;;5053630;28;20108;-53
2022/01/08 11:07:22;;;;;;;53.97;32.30;;;5.60;95.20;;;;;;5053240;28;20175;-59
2022/01/08 11:09:53;;;;;;;55.67;33.65;;;5.60;95.20;;;;;;5053507;28;20028;-60
2022/01/08 11:12:28;;;;;;;76.75;43.17;;;5.50;96.70;;;;;;5053434;28;20025;-53
2022/01/08 11:15:12;;;;;;;54.35;32.30;;;5.50;98.00;;;;;;5053328;28;20025;-57
2022/01/08 11:17:40;;;;;;;47.10;28.55;;;5.50;99.00;;;;;;5053548;28;20135;-60
2022/01/08 11:20:10;;;;;;;41.05;25.80;;;5.70;97.90;;;;;;5053485;28;20021;-55
2022/01/08 11:22:42;;;;;;;32.97;22.98;;;5.90;95.80;;;;;;5053164;28;20146;-56
2022/01/08 11:25:13;;;;;;;31.50;20.33;;;6.10;94.20;;;;;;5053426;28;20024;-52
2022/01/08 11:28:10;;;;;;;31.35;21.00;;;6.20;93.50;;;;;;5053167;28;20036;-54
2022/01/08 11:30:50;;;;;;;39.67;25.52;;;6.20;92.20;;;;;;5053064;28;20032;-53
2022/01/08 11:35:51;;;;;;;32.90;21.10;;;5.90;95.60;;;;;;5053401;28;20032;-60
2022/01/08 11:38:20;;;;;;;43.00;27.27;;;5.90;95.70;;;;;;5053190;28;20032;-55
2022/01/08 11:40:49;;;;;;;40.20;24.75;;;6.00;94.30;;;;;;5053358;28;20079;-58
2022/01/08 11:43:18;;;;;;;38.42;23.40;;;5.90;94.50;;;;;;5053001;28;20467;-46
2022/01/08 11:45:53;;;;;;;38.17;23.00;;;5.80;95.60;;;;;;5052903;28;20386;-59
2022/01/08 11:48:24;;;;;;;27.92;18.85;;;5.90;96.30;;;;;;5052967;28;20033;-48
2022/01/08 11:50:52;;;;;;;33.55;22.70;;;5.90;93.90;;;;;;5052893;28;20021;-51
2022/01/08 11:53:21;;;;;;;32.78;21.00;;;6.10;92.60;;;;;;5053589;28;20021;-58
2022/01/08 11:55:48;;;;;;;30.08;20.02;;;6.00;93.90;;;;;;5056566;28;20025;-55
2022/01/08 11:58:28;;;;;;;36.05;23.70;;;6.10;92.20;;;;;;5056711;28;20112;-49
2022/01/08 12:00:57;;;;;;;30.55;19.63;;;6.20;91.60;;;;;;5057047;28;20075;-54
2022/01/08 12:03:35;;;;;;;25.42;18.48;;;6.10;91.70;;;;;;5057022;28;20534;-56
2022/01/08 12:06:22;;;;;;;30.42;20.58;;;6.20;91.90;;;;;;5056847;28;20052;-54
2022/01/08 12:09:23;;;;;;;29.35;19.02;;;6.30;90.90;;;;;;5056538;28;20033;-60
2022/01/08 12:11:46;;;;;;;27.73;17.58;;;6.20;92.20;;;;;;5056062;28;20155;-62
2022/01/08 12:14:18;;;;;;;33.00;21.08;;;6.20;91.90;;;;;;5056438;28;20482;-53
2022/01/08 12:16:46;;;;;;;38.53;24.15;;;6.30;94.20;;;;;;5056424;28;20045;-55
2022/01/08 12:19:34;;;;;;;48.63;29.17;;;6.30;92.10;;;;;;5056434;28;20021;-54
2022/01/08 12:22:18;;;;;;;35.72;22.55;;;6.20;90.90;;;;;;5056606;28;20383;-57
2022/01/08 12:24:55;;;;;;;31.23;21.40;;;6.10;92.00;;;;;;5056342;28;20025;-55
2022/01/08 12:27:40;;;;;;;44.08;27.52;;;6.20;91.90;;;;;;5056238;28;20533;-54
2022/01/08 12:30:15;;;;;;;32.95;21.42;;;6.20;92.60;;;;;;5056447;28;20029;-50
2022/01/08 12:32:45;;;;;;;36.10;23.50;;;6.10;93.70;;;;;;5056176;28;20032;-50
2022/01/08 12:35:37;;;;;;;31.63;21.30;;;6.10;93.20;;;;;;5056343;28;20036;-61
2022/01/08 12:38:21;;;;;;;34.65;22.25;;;6.10;95.80;;;;;;5056367;28;20064;-53
2022/01/08 12:40:50;;;;;;;37.78;24.88;;;6.10;93.70;;;;;;5055825;28;20067;-57
2022/01/08 12:43:28;;;;;;;41.45;25.17;;;6.00;93.80;;;;;;5055971;28;20124;-56
2022/01/08 12:46:20;;;;;;;40.10;25.35;;;6.00;96.10;;;;;;5055874;28;20032;-52
2022/01/08 12:49:06;;;;;;;46.28;27.77;;;6.00;94.90;;;;;;5056013;28;20033;-52
2022/01/08 12:51:55;;;;;;;45.63;28.05;;;6.00;96.50;;;;;;5055925;28;20490;-51
2022/01/08 12:54:22;;;;;;;42.72;28.40;;;5.90;96.60;;;;;;5055465;28;20033;-54
2022/01/08 12:56:52;;;;;;;49.60;30.05;;;5.90;96.50;;;;;;5055668;28;20479;-57
2022/01/08 12:59:20;;;;;;;54.08;33.13;;;5.80;97.60;;;;;;5055557;28;20033;-59
2022/01/08 13:01:49;;;;;;;45.63;27.60;;;5.80;98.50;;;;;;5055639;28;20025;-58
2022/01/08 13:04:18;;;;;;;47.88;28.08;;;5.60;99.90;;;;;;5055688;28;20064;-50
2022/01/08 13:06:44;;;;;;;49.80;30.35;;;5.50;99.90;;;;;;5054669;28;20552;-54